Ana Sayfa
METAR-TAF:

METAR-TAF

Havaalanları :

Carroll, Iowa, Amerika Birleşik Devletleri

Enlem: 42-03N, Boylam: 094-47W, yükseklik: 375 m

Güncel hava durumu gözlemi

Rapor saat 21:55 UTC de 25 dakika önce yapıldı.
Rüzgar kuzeybatıdan 14 kt
Sıcaklık 9°C
Nem 40%
Basınç 1025 hPa
Görüş mesafesi: 16.1 km
5000 ft yükseklikte parçalı çok bulutlu
6000 ft yükseklikte çok bulutlu

METAR: KCIN 202155Z AUTO 31014KT 10SM BKN050 OVC060 09/M04 A3028 RMK AO2

Saat: 17:20 (22:20 UTC)


TAF: eksik

4.000'den fazla havaalanı için hava durumu gözlemleri ve tahminleri (METAR ve TAF raporları).

Kullanılabilir istasyonlar harita üzerinde sarı ve kırmızı noktalarla gösterilir.

İstasyonun adını görmek için fareyi noktanın üzerinde gezdirin.

Sonrasında hava gözlem ve tahminlerini görmek için tıklayın.

Haritayı değiştirmek için: yaklaştırmak için siyah artı işaretli yeşil düğmeye ve uzaklaştırmak için de eksi işaretli düğmeye hızla tıklayın; bitişik haritalar için yeşil okları kullanın.


METAR-TAF: